Time;durP1;ratioP1;P1;durP2;ratioP2;P2;SDS_P1;SDS_P2;PMS_P1;PMS_P2;Temp;Humidity;BMP_temperature;BMP_pressure;BME280_temperature;BME280_humidity;BME280_pressure;Samples;Min_cycle;Max_cycle;Signal;HPM_P1;HPM_P2
2021/08/30 00:01:46;;;;;;;11.10;7.45;;;16.00;99.90;;;;;;4759007;29;20546;-85
2021/08/30 00:04:12;;;;;;;15.45;9.32;;;15.90;99.90;;;;;;4725705;29;20171;-90
2021/08/30 00:06:41;;;;;;;14.75;8.70;;;15.90;99.90;;;;;;4739969;29;20050;-90
2021/08/30 00:09:09;;;;;;;13.85;8.35;;;15.90;99.90;;;;;;4758074;29;20043;-91
2021/08/30 00:11:36;;;;;;;16.08;11.27;;;15.90;99.90;;;;;;4756060;29;21700;-90
2021/08/30 00:14:04;;;;;;;16.98;10.48;;;15.90;99.90;;;;;;4741069;30;20151;-90
2021/08/30 00:16:31;;;;;;;11.93;8.35;;;15.90;99.90;;;;;;4769493;29;20042;-91
2021/08/30 00:18:58;;;;;;;13.25;8.50;;;15.90;99.90;;;;;;4738436;29;20054;-90
2021/08/30 00:21:24;;;;;;;11.05;7.47;;;15.90;99.90;;;;;;4772947;29;20032;-90
2021/08/30 00:23:51;;;;;;;10.25;7.07;;;15.90;99.90;;;;;;4760489;29;20058;-88
2021/08/30 00:26:17;;;;;;;12.10;8.52;;;15.90;99.90;;;;;;4777922;29;20047;-87
2021/08/30 00:28:44;;;;;;;12.50;7.78;;;15.80;99.90;;;;;;4839141;24;20051;-95
2021/08/30 00:39:52;;;;;;;9.77;6.50;;;15.80;99.90;;;;;;4801319;29;20035;-96
2021/08/30 00:42:21;;;;;;;11.85;7.22;;;15.70;99.90;;;;;;4787754;30;20058;-96
2021/08/30 00:44:48;;;;;;;12.10;7.35;;;15.70;99.90;;;;;;4762447;30;20052;-96
2021/08/30 00:47:15;;;;;;;10.07;7.18;;;15.80;99.90;;;;;;4760280;29;20040;-89
2021/08/30 00:49:44;;;;;;;10.93;6.90;;;15.80;99.90;;;;;;4755436;30;20055;-89
2021/08/30 00:52:17;;;;;;;11.68;7.47;;;15.90;99.90;;;;;;4759184;29;20050;-91
2021/08/30 00:54:49;;;;;;;11.20;7.72;;;15.90;99.90;;;;;;4759139;30;20058;-91
2021/08/30 00:57:19;;;;;;;11.68;7.22;;;16.00;99.90;;;;;;4767964;29;20054;-92
2021/08/30 00:59:50;;;;;;;11.52;6.55;;;16.00;99.90;;;;;;4774596;30;20484;-92
2021/08/30 01:02:17;;;;;;;10.45;7.25;;;16.10;99.90;;;;;;4757723;30;20043;-90
2021/08/30 01:04:50;;;;;;;9.48;6.78;;;16.20;99.90;;;;;;4757882;30;20047;-91
2021/08/30 01:08:01;;;;;;;11.82;6.82;;;16.20;99.90;;;;;;4758327;30;20515;-91
2021/08/30 01:10:52;;;;;;;10.48;6.95;;;16.20;99.90;;;;;;4757759;30;20039;-90
2021/08/30 01:13:36;;;;;;;12.60;7.30;;;16.30;99.90;;;;;;4774262;29;20047;-90
2021/08/30 01:16:09;;;;;;;8.43;6.63;;;16.30;99.90;;;;;;4775579;29;20042;-90
2021/08/30 01:18:36;;;;;;;10.20;6.50;;;16.30;99.90;;;;;;4757678;30;20055;-90
2021/08/30 01:21:31;;;;;;;8.98;6.72;;;16.30;99.90;;;;;;4768094;29;20054;-91
2021/08/30 01:24:12;;;;;;;10.00;6.40;;;16.40;99.90;;;;;;4759794;30;20055;-92
2021/08/30 01:26:55;;;;;;;9.10;6.07;;;16.40;99.90;;;;;;4771781;30;20051;-91
2021/08/30 01:29:36;;;;;;;11.30;7.22;;;16.40;99.90;;;;;;4762705;29;20530;-92
2021/08/30 01:32:02;;;;;;;9.20;7.18;;;16.40;99.90;;;;;;4791608;29;20050;-92
2021/08/30 01:34:33;;;;;;;8.95;7.05;;;16.40;99.90;;;;;;4775885;29;20047;-94
2021/08/30 01:37:04;;;;;;;;;;;16.40;99.90;;;;;;4754933;30;20054;-93
2021/08/30 01:39:34;;;;;;;10.57;6.85;;;16.50;99.90;;;;;;4757128;30;19948;-92
2021/08/30 01:42:06;;;;;;;8.55;6.65;;;16.40;99.90;;;;;;4758243;30;20051;-93
2021/08/30 01:44:34;;;;;;;9.27;6.90;;;16.50;99.90;;;;;;4757948;30;20055;-92
2021/08/30 01:47:01;;;;;;;10.52;7.68;;;16.50;99.90;;;;;;4750872;29;20039;-92
2021/08/30 01:49:33;;;;;;;11.25;7.68;;;16.50;99.90;;;;;;4751511;30;20047;-91
2021/08/30 01:52:03;;;;;;;10.30;6.22;;;16.50;99.90;;;;;;4761423;30;20058;-90
2021/08/30 01:54:30;;;;;;;12.60;7.57;;;16.50;99.90;;;;;;4760958;30;20868;-91
2021/08/30 01:57:01;;;;;;;13.07;8.38;;;16.50;99.90;;;;;;4747319;30;20487;-92
2021/08/30 02:02:16;;;;;;;10.02;6.85;;;16.50;99.90;;;;;;4779128;29;20039;-90
2021/08/30 02:04:43;;;;;;;7.95;6.18;;;16.50;99.90;;;;;;4748141;30;20070;-91
2021/08/30 02:07:10;;;;;;;10.82;7.93;;;16.60;99.90;;;;;;4746632;30;20046;-91
2021/08/30 02:09:37;;;;;;;11.85;7.50;;;16.60;99.90;;;;;;4745676;30;20047;-91
2021/08/30 02:12:04;;;;;;;9.75;7.53;;;16.60;99.90;;;;;;4745663;30;20043;-91
2021/08/30 02:14:30;;;;;;;12.48;8.05;;;16.60;99.90;;;;;;4742770;30;20416;-91
2021/08/30 02:17:04;;;;;;;11.07;7.00;;;16.60;99.90;;;;;;4761240;30;20039;-91
2021/08/30 02:19:44;;;;;;;10.02;7.40;;;16.60;99.90;;;;;;4744568;30;20361;-91
2021/08/30 02:22:38;;;;;;;11.95;7.00;;;16.60;99.90;;;;;;4746644;30;20368;-92
2021/08/30 02:25:14;;;;;;;9.13;7.15;;;16.60;99.90;;;;;;4762128;30;20062;-92
2021/08/30 02:27:53;;;;;;;8.63;7.05;;;16.60;99.90;;;;;;4761587;30;20511;-92
2021/08/30 02:30:30;;;;;;;10.80;7.55;;;16.60;99.90;;;;;;4772289;30;20039;-92
2021/08/30 02:33:01;;;;;;;10.55;6.97;;;16.60;99.90;;;;;;4742974;30;20048;-91
2021/08/30 02:35:39;;;;;;;10.73;8.52;;;16.60;99.90;;;;;;4744745;30;20136;-92
2021/08/30 02:38:11;;;;;;;8.95;7.30;;;16.60;99.90;;;;;;4751166;30;20051;-92
2021/08/30 02:40:40;;;;;;;10.95;7.45;;;16.60;99.90;;;;;;4761317;30;20054;-92
2021/08/30 02:43:07;;;;;;;9.63;7.35;;;16.60;99.90;;;;;;4746479;30;20043;-93
2021/08/30 02:45:38;;;;;;;11.20;7.22;;;16.60;99.90;;;;;;4745898;30;20051;-91
2021/08/30 02:48:09;;;;;;;8.45;6.80;;;16.60;99.90;;;;;;4761215;30;20487;-92
2021/08/30 02:50:38;;;;;;;11.30;8.05;;;16.50;99.90;;;;;;4745743;30;20099;-91
2021/08/30 02:53:10;;;;;;;8.27;6.97;;;16.50;99.90;;;;;;4747100;30;20054;-93
2021/08/30 02:55:36;;;;;;;12.23;7.68;;;16.50;99.90;;;;;;4745823;30;20506;-92
2021/08/30 02:58:07;;;;;;;8.88;7.38;;;16.50;99.90;;;;;;4758283;30;20048;-92
2021/08/30 03:00:36;;;;;;;9.80;7.05;;;16.50;99.90;;;;;;4745921;30;20043;-93
2021/08/30 03:03:03;;;;;;;10.60;7.95;;;16.50;99.90;;;;;;4760029;29;20047;-93
2021/08/30 03:05:34;;;;;;;8.95;7.47;;;16.50;99.90;;;;;;4763268;29;20411;-94
2021/08/30 03:08:01;;;;;;;10.85;7.13;;;16.50;99.90;;;;;;4763038;29;20060;-92
2021/08/30 03:10:31;;;;;;;12.45;7.78;;;16.50;99.90;;;;;;4748619;30;20051;-92
2021/08/30 03:13:02;;;;;;;9.98;7.70;;;16.50;99.90;;;;;;4750377;30;20059;-92
2021/08/30 03:15:30;;;;;;;10.70;7.05;;;16.50;99.90;;;;;;4752265;30;20043;-92
2021/08/30 03:18:14;;;;;;;10.48;7.53;;;16.50;99.90;;;;;;4776176;29;20049;-93
2021/08/30 03:20:52;;;;;;;9.10;7.47;;;16.60;99.90;;;;;;4761371;30;20047;-93
2021/08/30 03:23:22;;;;;;;12.10;8.40;;;16.60;99.90;;;;;;4791006;29;20054;-93
2021/08/30 03:25:54;;;;;;;10.82;7.40;;;16.60;99.90;;;;;;4765464;30;20044;-93
2021/08/30 03:28:22;;;;;;;9.52;8.05;;;16.60;99.90;;;;;;4751833;30;20048;-94
2021/08/30 03:30:52;;;;;;;13.73;9.80;;;16.60;99.90;;;;;;4771906;30;20048;-94
2021/08/30 03:33:20;;;;;;;13.48;9.15;;;16.60;99.90;;;;;;4759797;29;20046;-93
2021/08/30 03:35:53;;;;;;;9.32;7.43;;;16.60;99.90;;;;;;4772761;30;20039;-93
2021/08/30 03:38:21;;;;;;;14.55;9.32;;;16.60;99.90;;;;;;4765174;30;20074;-91
2021/08/30 03:40:55;;;;;;;14.13;9.32;;;16.60;99.90;;;;;;4746189;30;20035;-92
2021/08/30 03:43:27;;;;;;;16.85;10.80;;;16.60;99.90;;;;;;4752462;29;20050;-92
2021/08/30 03:45:56;;;;;;;;;;;16.70;99.90;;;;;;4777866;29;20487;-92
2021/08/30 03:48:29;;;;;;;18.42;10.90;;;16.70;99.90;;;;;;4759151;30;19914;-92
2021/08/30 03:51:04;;;;;;;16.27;10.88;;;16.70;99.90;;;;;;4762765;30;20400;-92
2021/08/30 03:53:37;;;;;;;15.68;10.93;;;16.70;99.90;;;;;;4760008;30;20487;-93
2021/08/30 03:56:05;;;;;;;15.35;10.65;;;16.70;99.90;;;;;;4764461;29;20053;-92
2021/08/30 03:58:39;;;;;;;14.60;9.68;;;16.70;99.90;;;;;;4766832;30;20507;-91
2021/08/30 04:01:11;;;;;;;13.20;9.32;;;16.70;99.90;;;;;;4758618;30;20058;-92
2021/08/30 04:03:43;;;;;;;14.50;9.82;;;16.70;99.90;;;;;;4765553;29;20055;-94
2021/08/30 04:06:13;;;;;;;16.08;11.63;;;16.70;99.90;;;;;;4764189;29;20630;-93
2021/08/30 04:08:40;;;;;;;16.88;10.48;;;16.80;99.90;;;;;;4760733;30;20051;-95
2021/08/30 04:11:09;;;;;;;17.35;11.52;;;16.70;99.90;;;;;;4745998;30;20407;-94
2021/08/30 04:13:36;;;;;;;17.13;10.98;;;16.80;99.90;;;;;;4745048;30;20412;-94
2021/08/30 04:16:10;;;;;;;14.20;9.38;;;16.80;99.90;;;;;;4760410;30;20054;-93
2021/08/30 04:18:57;;;;;;;;;;;;;;;;;;;;;
2021/08/30 04:21:34;;;;;;;19.02;10.85;;;16.80;99.90;;;;;;4758999;30;20040;-92
2021/08/30 04:24:04;;;;;;;14.20;10.45;;;16.80;99.90;;;;;;4744332;29;20070;-92
2021/08/30 04:26:48;;;;;;;18.45;11.57;;;16.90;99.90;;;;;;4751160;29;20051;-91
2021/08/30 04:29:24;;;;;;;20.17;12.25;;;16.90;99.90;;;;;;4740887;30;20135;-90
2021/08/30 04:32:07;;;;;;;15.48;10.73;;;16.80;99.90;;;;;;4741772;30;20059;-92
2021/08/30 04:34:35;;;;;;;20.60;12.48;;;16.90;99.90;;;;;;4728139;30;20071;-92
2021/08/30 04:37:16;;;;;;;17.77;11.15;;;16.90;99.90;;;;;;4759194;30;20051;-92
2021/08/30 04:39:44;;;;;;;19.90;12.07;;;16.90;99.90;;;;;;4759987;30;20060;-92
2021/08/30 04:42:18;;;;;;;16.35;10.95;;;16.90;99.90;;;;;;4758757;30;20047;-91
2021/08/30 04:44:47;;;;;;;24.75;13.65;;;16.90;99.90;;;;;;4745136;30;20047;-93
2021/08/30 04:47:17;;;;;;;20.00;12.82;;;16.90;99.90;;;;;;4758849;30;20039;-93
2021/08/30 04:49:44;;;;;;;28.92;16.15;;;16.90;99.90;;;;;;4758991;30;20047;-92
2021/08/30 04:52:14;;;;;;;21.40;14.10;;;16.90;99.90;;;;;;4744684;30;20066;-92
2021/08/30 04:54:43;;;;;;;22.13;13.20;;;16.90;99.90;;;;;;4743524;30;20507;-93
2021/08/30 04:57:12;;;;;;;21.55;13.20;;;17.00;99.90;;;;;;4758530;30;20051;-91
2021/08/30 04:59:42;;;;;;;27.80;14.75;;;17.00;99.90;;;;;;4759153;30;20054;-93
2021/08/30 05:02:20;;;;;;;19.80;12.77;;;17.00;99.90;;;;;;4762931;29;20039;-92
2021/08/30 05:04:49;;;;;;;26.67;15.30;;;17.00;99.90;;;;;;4758152;30;20047;-92
2021/08/30 05:07:24;;;;;;;25.50;14.48;;;16.90;99.90;;;;;;4750854;29;20058;-92
2021/08/30 05:09:51;;;;;;;22.45;12.73;;;16.90;99.90;;;;;;4740784;30;20062;-91
2021/08/30 05:12:17;;;;;;;24.77;13.15;;;16.90;99.90;;;;;;4750832;29;20551;-90
2021/08/30 05:14:44;;;;;;;23.35;14.13;;;16.90;99.90;;;;;;4759876;29;20062;-88
2021/08/30 05:17:10;;;;;;;27.15;15.70;;;16.80;99.90;;;;;;4764016;29;20047;-90
2021/08/30 05:19:38;;;;;;;29.67;16.52;;;16.90;99.90;;;;;;4746375;29;20398;-86
2021/08/30 05:22:04;;;;;;;22.70;16.00;;;16.90;99.90;;;;;;4743301;29;20043;-89
2021/08/30 05:24:31;;;;;;;25.08;15.80;;;16.90;99.90;;;;;;4743945;29;20055;-84
2021/08/30 05:26:57;;;;;;;25.58;15.13;;;16.90;99.90;;;;;;4770953;29;20407;-89
2021/08/30 05:29:23;;;;;;;21.15;13.50;;;16.90;99.90;;;;;;4746313;30;20512;-88
2021/08/30 05:31:50;;;;;;;21.15;12.85;;;17.00;99.90;;;;;;4743306;30;20407;-88
2021/08/30 05:34:16;;;;;;;22.75;15.25;;;17.00;99.90;;;;;;4778431;30;20062;-88
2021/08/30 05:36:43;;;;;;;23.83;16.27;;;17.00;99.90;;;;;;4762363;30;20058;-92
2021/08/30 05:39:09;;;;;;;23.75;14.98;;;17.00;99.90;;;;;;4739282;30;20622;-87
2021/08/30 05:41:36;;;;;;;20.25;14.52;;;17.00;99.90;;;;;;4742744;29;20054;-85
2021/08/30 05:44:02;;;;;;;16.33;11.48;;;17.10;99.90;;;;;;4729548;29;20514;-85
2021/08/30 05:46:29;;;;;;;18.33;13.00;;;17.00;99.90;;;;;;4727046;29;20062;-85
2021/08/30 05:48:55;;;;;;;23.40;14.10;;;17.00;99.90;;;;;;4760906;29;20566;-90
2021/08/30 05:51:22;;;;;;;21.10;14.43;;;17.00;99.90;;;;;;4757137;29;20055;-90
2021/08/30 05:53:48;;;;;;;19.85;12.35;;;17.00;99.90;;;;;;4770985;29;20596;-91
2021/08/30 05:56:15;;;;;;;20.80;13.57;;;17.10;99.90;;;;;;4753718;29;20050;-93
2021/08/30 05:58:41;;;;;;;23.73;13.68;;;17.10;99.90;;;;;;4739291;30;20039;-93
2021/08/30 06:01:08;;;;;;;23.27;14.32;;;17.10;99.90;;;;;;4756617;30;20039;-95
2021/08/30 06:03:34;;;;;;;23.98;14.65;;;17.20;99.90;;;;;;4748509;29;20503;-90
2021/08/30 06:06:00;;;;;;;23.10;12.85;;;17.20;99.90;;;;;;4743059;30;20062;-94
2021/08/30 06:08:27;;;;;;;20.50;12.55;;;17.30;99.90;;;;;;4740438;29;20047;-93
2021/08/30 06:10:56;;;;;;;21.95;11.45;;;17.40;99.90;;;;;;4741445;29;20059;-91
2021/08/30 06:13:24;;;;;;;26.30;16.98;;;17.40;99.90;;;;;;4758427;29;20044;-91
2021/08/30 06:15:51;;;;;;;20.00;12.32;;;17.40;99.90;;;;;;4744546;29;20047;-92
2021/08/30 06:18:17;;;;;;;23.20;14.77;;;17.50;99.90;;;;;;4767906;29;20047;-92
2021/08/30 06:20:44;;;;;;;29.92;19.40;;;17.50;99.90;;;;;;4771292;29;20055;-91
2021/08/30 06:23:10;;;;;;;19.02;14.02;;;17.50;99.90;;;;;;4752768;29;20047;-90
2021/08/30 06:25:36;;;;;;;25.30;15.02;;;17.60;99.90;;;;;;4772085;29;20147;-90
2021/08/30 06:28:03;;;;;;;22.20;13.57;;;17.60;99.90;;;;;;4754978;29;20061;-89
2021/08/30 06:30:30;;;;;;;23.40;14.55;;;17.70;99.90;;;;;;4725389;29;20058;-90
2021/08/30 06:32:57;;;;;;;21.02;13.13;;;17.80;99.90;;;;;;4740030;29;20058;-92
2021/08/30 06:35:23;;;;;;;21.33;12.43;;;17.90;99.90;;;;;;4788700;29;20046;-96
2021/08/30 06:37:50;;;;;;;19.65;11.30;;;18.10;99.90;;;;;;4742784;29;20058;-94
2021/08/30 06:40:17;;;;;;;20.65;12.55;;;18.30;99.90;;;;;;4746418;29;20051;-92
2021/08/30 06:42:44;;;;;;;15.98;11.35;;;18.40;99.90;;;;;;4745071;29;20530;-90
2021/08/30 06:45:11;;;;;;;17.50;11.07;;;18.50;99.90;;;;;;4775236;30;20058;-90
2021/08/30 06:47:37;;;;;;;25.13;13.07;;;18.60;99.90;;;;;;4785862;29;20046;-90
2021/08/30 06:50:05;;;;;;;19.42;13.10;;;18.60;99.90;;;;;;4738413;30;20054;-83
2021/08/30 06:52:31;;;;;;;15.90;11.73;;;18.60;99.90;;;;;;4758602;30;20047;-84
2021/08/30 06:54:58;;;;;;;23.05;12.27;;;18.60;99.90;;;;;;4769759;30;20043;-85
2021/08/30 06:57:24;;;;;;;23.60;12.15;;;18.60;99.90;;;;;;4737483;30;20076;-85
2021/08/30 06:59:50;;;;;;;25.65;13.20;;;18.50;99.90;;;;;;4722211;30;20070;-84
2021/08/30 07:02:17;;;;;;;23.52;13.30;;;18.50;99.90;;;;;;4751667;29;20043;-84
2021/08/30 07:04:43;;;;;;;18.85;10.52;;;18.50;99.90;;;;;;4742747;30;20418;-84
2021/08/30 07:07:10;;;;;;;16.58;12.50;;;18.50;99.90;;;;;;4741170;29;20058;-85
2021/08/30 07:09:36;;;;;;;23.55;11.27;;;18.50;99.90;;;;;;4738981;30;20055;-83
2021/08/30 07:12:03;;;;;;;18.08;12.68;;;18.50;99.90;;;;;;4738513;29;20082;-82
2021/08/30 07:14:29;;;;;;;20.58;12.38;;;18.50;99.90;;;;;;4740084;30;20047;-83
2021/08/30 07:16:56;;;;;;;18.83;12.65;;;18.50;99.90;;;;;;4744493;30;20055;-92
2021/08/30 07:19:22;;;;;;;21.98;13.27;;;18.50;99.90;;;;;;4757875;30;20063;-87
2021/08/30 07:21:49;;;;;;;32.22;16.52;;;18.60;99.90;;;;;;4738479;30;20054;-87
2021/08/30 07:24:15;;;;;;;20.15;12.75;;;18.60;99.90;;;;;;4738476;30;20503;-85
2021/08/30 07:26:42;;;;;;;28.10;14.93;;;18.60;99.90;;;;;;4739277;29;20070;-84
2021/08/30 07:29:08;;;;;;;19.17;12.73;;;18.60;99.90;;;;;;4756951;29;20055;-84
2021/08/30 07:31:35;;;;;;;22.67;14.68;;;18.60;99.90;;;;;;4755816;29;20613;-83
2021/08/30 07:34:01;;;;;;;25.17;15.95;;;18.70;99.90;;;;;;4759391;29;20069;-83
2021/08/30 07:36:28;;;;;;;24.60;18.23;;;18.70;99.90;;;;;;4737960;29;20051;-84
2021/08/30 07:38:55;;;;;;;22.38;14.70;;;18.80;99.90;;;;;;4770269;29;20495;-82
2021/08/30 07:41:22;;;;;;;22.27;14.70;;;18.90;99.90;;;;;;4767419;29;20058;-83
2021/08/30 07:43:49;;;;;;;16.25;12.13;;;19.00;99.90;;;;;;4755372;29;20503;-83
2021/08/30 07:46:19;;;;;;;20.77;14.10;;;19.10;99.90;;;;;;4742664;30;20055;-82
2021/08/30 07:48:47;;;;;;;22.58;14.20;;;19.20;99.90;;;;;;4753640;30;20063;-82
2021/08/30 07:51:14;;;;;;;19.55;13.35;;;19.20;99.90;;;;;;4784363;29;20047;-83
2021/08/30 07:53:42;;;;;;;20.17;12.55;;;19.30;99.90;;;;;;4751046;30;20557;-83
2021/08/30 07:56:10;;;;;;;16.63;11.15;;;19.40;99.90;;;;;;4738043;30;20062;-84
2021/08/30 07:58:37;;;;;;;16.67;10.98;;;19.40;99.90;;;;;;4755116;29;20044;-83
2021/08/30 08:01:03;;;;;;;15.70;12.50;;;19.50;99.90;;;;;;4752864;29;20058;-82
2021/08/30 08:03:30;;;;;;;20.17;13.07;;;19.50;99.90;;;;;;4786749;29;20042;-83
2021/08/30 08:05:56;;;;;;;17.05;12.27;;;19.50;99.90;;;;;;4741991;29;20054;-83
2021/08/30 08:08:23;;;;;;;14.70;11.18;;;19.50;99.90;;;;;;4767734;29;20046;-84
2021/08/30 08:10:49;;;;;;;20.25;12.57;;;19.40;99.90;;;;;;4738372;29;20062;-84
2021/08/30 08:13:16;;;;;;;21.92;10.88;;;19.40;99.90;;;;;;4753477;29;20054;-83
2021/08/30 08:15:43;;;;;;;17.30;12.52;;;19.30;99.90;;;;;;4753413;29;20051;-84
2021/08/30 08:18:09;;;;;;;16.27;12.52;;;19.20;99.90;;;;;;4753595;29;20507;-84
2021/08/30 08:20:36;;;;;;;18.65;11.75;;;19.20;99.90;;;;;;4753135;29;20066;-83
2021/08/30 08:23:03;;;;;;;15.57;11.48;;;19.10;99.90;;;;;;4757352;29;20055;-84
2021/08/30 08:25:30;;;;;;;18.98;11.48;;;19.10;99.90;;;;;;4755013;29;20519;-84
2021/08/30 08:28:01;;;;;;;26.05;19.85;;;19.20;99.90;;;;;;4754155;29;20376;-83
2021/08/30 08:30:27;;;;;;;19.95;16.48;;;19.40;99.90;;;;;;4774276;29;20043;-79
2021/08/30 08:32:54;;;;;;;17.38;12.85;;;19.50;99.90;;;;;;4787386;29;20061;-82
2021/08/30 08:35:20;;;;;;;19.02;12.50;;;19.60;99.90;;;;;;4769658;29;20043;-82
2021/08/30 08:37:47;;;;;;;21.23;13.52;;;19.70;99.90;;;;;;4749146;29;20119;-82
2021/08/30 08:40:15;;;;;;;15.13;10.15;;;20.00;99.90;;;;;;4749975;30;20047;-82
2021/08/30 08:42:42;;;;;;;17.05;12.40;;;20.30;99.90;;;;;;4750559;30;20043;-82
2021/08/30 08:45:11;;;;;;;16.02;10.63;;;20.50;99.90;;;;;;4751198;30;20883;-83
2021/08/30 08:47:39;;;;;;;15.30;10.70;;;20.70;99.90;;;;;;4727401;29;20055;-83
2021/08/30 08:50:08;;;;;;;19.08;10.18;;;20.70;99.90;;;;;;4752250;29;20051;-82
2021/08/30 08:52:36;;;;;;;16.38;9.40;;;20.70;99.90;;;;;;4727025;29;20062;-82
2021/08/30 08:55:03;;;;;;;10.70;8.45;;;20.70;99.90;;;;;;4766906;29;20530;-83
2021/08/30 08:57:30;;;;;;;11.57;8.25;;;20.80;99.90;;;;;;4751903;29;20051;-86
2021/08/30 09:00:04;;;;;;;12.68;8.93;;;20.80;99.90;;;;;;4738898;29;20058;-80
2021/08/30 09:02:34;;;;;;;11.05;8.02;;;20.80;99.90;;;;;;4750078;29;20051;-86
2021/08/30 09:05:03;;;;;;;12.60;9.50;;;20.90;99.90;;;;;;4737135;29;20058;-84
2021/08/30 09:07:37;;;;;;;12.27;8.02;;;20.90;99.90;;;;;;4751532;29;20047;-81
2021/08/30 09:10:10;;;;;;;10.55;7.57;;;21.00;99.90;;;;;;4752924;29;20074;-83
2021/08/30 09:12:42;;;;;;;14.07;8.57;;;21.00;99.90;;;;;;4753398;29;20059;-87
2021/08/30 09:15:13;;;;;;;14.75;10.05;;;20.80;99.90;;;;;;4754711;29;20074;-80
2021/08/30 09:17:58;;;;;;;11.43;7.65;;;20.70;99.90;;;;;;4738242;29;20042;-86
2021/08/30 09:20:29;;;;;;;12.23;7.57;;;20.60;99.90;;;;;;4750103;29;20047;-80
2021/08/30 09:22:55;;;;;;;9.10;7.60;;;20.60;99.90;;;;;;4751522;30;20388;-80
2021/08/30 09:25:22;;;;;;;11.90;7.53;;;20.80;99.90;;;;;;4741202;30;20074;-82
2021/08/30 09:27:54;;;;;;;11.20;7.30;;;21.10;99.90;;;;;;4740976;29;20043;-81
2021/08/30 09:30:25;;;;;;;11.48;8.57;;;21.40;99.90;;;;;;4770416;29;20054;-80
2021/08/30 09:32:52;;;;;;;8.27;7.17;;;21.60;99.90;;;;;;4753757;29;20153;-81
2021/08/30 09:35:20;;;;;;;8.82;7.18;;;21.90;99.90;;;;;;4750136;29;20296;-78
2021/08/30 09:37:47;;;;;;;13.05;10.68;;;22.00;99.90;;;;;;4741571;29;20051;-78
2021/08/30 09:40:19;;;;;;;11.27;9.65;;;22.00;99.90;;;;;;4741188;29;20563;-79
2021/08/30 09:42:47;;;;;;;;;;;22.00;99.90;;;;;;4753684;29;20052;-75
2021/08/30 09:45:16;;;;;;;9.30;7.22;;;21.80;99.90;;;;;;4754561;29;19917;-75
2021/08/30 09:47:58;;;;;;;8.55;6.90;;;21.70;99.90;;;;;;4752905;29;20051;-76
2021/08/30 09:50:33;;;;;;;12.20;7.70;;;21.70;99.90;;;;;;4767588;29;20474;-78
2021/08/30 09:53:01;;;;;;;11.27;6.72;;;21.80;99.90;;;;;;4766062;29;20530;-78
2021/08/30 09:55:28;;;;;;;6.57;5.38;;;21.90;99.90;;;;;;4750071;29;20047;-79
2021/08/30 09:57:56;;;;;;;11.38;6.57;;;22.10;99.90;;;;;;4746361;29;20051;-77
2021/08/30 10:00:23;;;;;;;8.00;6.13;;;22.10;99.90;;;;;;4771246;29;20067;-76
2021/08/30 10:02:53;;;;;;;8.60;6.63;;;21.90;99.90;;;;;;4753635;29;20393;-77
2021/08/30 10:05:21;;;;;;;12.05;8.85;;;21.70;99.90;;;;;;4751167;29;20047;-78
2021/08/30 10:07:48;;;;;;;8.57;7.53;;;21.60;99.90;;;;;;4767494;29;20035;-78
2021/08/30 10:10:16;;;;;;;11.73;8.82;;;21.50;99.90;;;;;;4786056;29;20042;-78
2021/08/30 10:12:43;;;;;;;9.00;6.13;;;21.60;99.90;;;;;;4751844;29;20468;-78
2021/08/30 10:15:11;;;;;;;9.18;5.60;;;21.70;99.90;;;;;;4738431;29;20139;-77
2021/08/30 10:17:43;;;;;;;11.40;6.45;;;22.00;99.90;;;;;;4742946;29;20051;-78
2021/08/30 10:20:21;;;;;;;7.47;5.40;;;22.50;99.90;;;;;;4756176;29;20452;-78
2021/08/30 10:23:14;;;;;;;7.07;5.50;;;22.90;99.90;;;;;;4753102;29;20144;-78
2021/08/30 10:25:42;;;;;;;8.13;5.68;;;23.10;99.90;;;;;;4754943;29;20415;-77
2021/08/30 10:28:11;;;;;;;7.50;6.13;;;23.20;99.90;;;;;;4785627;29;20547;-77
2021/08/30 10:30:50;;;;;;;8.85;5.93;;;23.30;99.90;;;;;;4746260;29;20051;-77
2021/08/30 10:33:21;;;;;;;6.75;4.50;;;23.30;99.90;;;;;;4768318;29;20046;-77
2021/08/30 10:35:47;;;;;;;7.82;5.88;;;23.30;99.90;;;;;;4742428;29;20043;-77
2021/08/30 10:38:17;;;;;;;6.85;4.75;;;23.30;98.90;;;;;;4738857;29;20054;-77
2021/08/30 10:40:49;;;;;;;8.25;5.68;;;23.20;98.90;;;;;;4753873;29;20078;-77
2021/08/30 10:43:17;;;;;;;8.35;5.60;;;23.00;98.50;;;;;;4769504;29;20039;-77
2021/08/30 10:45:58;;;;;;;5.82;5.15;;;22.90;98.90;;;;;;4768570;29;20495;-77
2021/08/30 10:48:33;;;;;;;6.45;4.72;;;22.80;99.10;;;;;;4768216;29;20048;-77
2021/08/30 10:51:11;;;;;;;6.80;4.97;;;23.00;99.90;;;;;;4755344;29;20138;-76
2021/08/30 10:53:37;;;;;;;5.78;4.25;;;23.60;99.70;;;;;;4752898;29;20046;-78
2021/08/30 10:56:09;;;;;;;5.43;4.45;;;24.40;99.20;;;;;;4754780;29;20035;-76
2021/08/30 10:58:39;;;;;;;5.65;4.43;;;24.90;97.50;;;;;;4751831;29;20404;-77
2021/08/30 11:01:13;;;;;;;6.70;6.03;;;25.00;96.70;;;;;;4769949;29;20070;-78
2021/08/30 11:03:40;;;;;;;6.60;4.53;;;24.80;95.60;;;;;;4741281;29;20043;-78
2021/08/30 11:06:16;;;;;;;5.43;4.53;;;24.50;95.60;;;;;;4768588;29;20044;-77
2021/08/30 11:08:43;;;;;;;6.25;4.90;;;24.30;96.10;;;;;;4751927;29;20043;-77
2021/08/30 11:11:16;;;;;;;8.93;6.63;;;24.00;95.30;;;;;;4754844;29;20043;-78
2021/08/30 11:13:56;;;;;;;7.70;6.90;;;23.70;95.10;;;;;;4738008;29;20594;-77
2021/08/30 11:16:24;;;;;;;6.28;5.45;;;23.40;95.00;;;;;;4769119;29;20480;-78
2021/08/30 11:19:05;;;;;;;7.10;4.97;;;23.10;95.40;;;;;;4750653;29;20038;-89
2021/08/30 11:21:33;;;;;;;5.10;4.60;;;22.90;96.00;;;;;;4766445;29;20042;-86
2021/08/30 11:24:01;;;;;;;6.15;4.90;;;22.90;96.10;;;;;;4737899;30;20532;-85
2021/08/30 11:26:28;;;;;;;5.25;4.03;;;23.00;96.00;;;;;;4758405;29;20053;-85
2021/08/30 11:29:00;;;;;;;7.80;5.47;;;23.30;95.60;;;;;;4767777;30;20768;-87
2021/08/30 11:31:30;;;;;;;6.00;4.88;;;23.40;95.40;;;;;;4752467;29;20051;-86
2021/08/30 11:33:57;;;;;;;6.40;4.75;;;23.40;95.20;;;;;;4752721;30;20043;-86
2021/08/30 11:37:04;;;;;;;6.68;4.10;;;23.30;95.00;;;;;;4739330;29;20051;-86
2021/08/30 11:39:33;;;;;;;5.38;3.42;;;23.30;94.80;;;;;;4766752;29;20059;-86
2021/08/30 11:42:03;;;;;;;3.85;3.20;;;23.30;94.90;;;;;;4741034;29;20063;-86
2021/08/30 11:44:37;;;;;;;4.68;3.13;;;23.30;95.20;;;;;;4755489;30;20063;-86
2021/08/30 11:47:08;;;;;;;4.43;3.65;;;23.30;94.90;;;;;;4753997;29;20055;-86
2021/08/30 11:49:46;;;;;;;3.58;2.90;;;23.20;94.70;;;;;;4766340;30;20055;-86
2021/08/30 11:52:15;;;;;;;3.83;3.13;;;23.10;94.80;;;;;;4781512;29;20053;-85
2021/08/30 11:55:03;;;;;;;5.53;3.80;;;23.10;95.10;;;;;;4775392;29;20043;-85
2021/08/30 11:57:42;;;;;;;4.43;3.83;;;23.30;95.00;;;;;;4753892;29;20507;-85
2021/08/30 12:00:13;;;;;;;5.30;4.10;;;23.50;94.40;;;;;;4767643;30;20047;-86
2021/08/30 12:02:40;;;;;;;6.13;3.53;;;23.80;93.70;;;;;;4753453;30;20514;-87
2021/08/30 12:05:08;;;;;;;4.75;3.60;;;24.20;93.40;;;;;;4767362;30;20289;-87
2021/08/30 12:07:36;;;;;;;3.72;3.25;;;24.50;93.20;;;;;;4768325;29;20043;-86
2021/08/30 12:10:08;;;;;;;4.30;3.92;;;24.70;92.60;;;;;;4736465;30;20069;-88
2021/08/30 12:12:38;;;;;;;5.70;4.22;;;24.70;92.30;;;;;;4754780;29;20058;-87
2021/08/30 12:15:14;;;;;;;5.20;4.20;;;25.00;92.80;;;;;;4767443;29;20062;-87
2021/08/30 12:17:45;;;;;;;4.43;3.30;;;25.60;92.30;;;;;;4765255;30;20051;-87
2021/08/30 12:20:15;;;;;;;4.35;3.95;;;26.40;92.00;;;;;;4755094;29;20507;-87
2021/08/30 12:22:57;;;;;;;3.83;3.38;;;27.20;90.60;;;;;;4756014;30;20051;-88
2021/08/30 12:25:27;;;;;;;4.57;3.58;;;27.60;87.20;;;;;;4757535;30;20058;-88
2021/08/30 12:27:54;;;;;;;4.93;3.58;;;27.30;86.00;;;;;;4784149;29;20043;-88
2021/08/30 12:30:33;;;;;;;4.20;3.08;;;26.90;87.10;;;;;;4746122;29;20051;-85
2021/08/30 12:33:00;;;;;;;2.92;2.65;;;27.20;86.20;;;;;;4740811;29;20051;-86
2021/08/30 12:35:41;;;;;;;2.92;2.63;;;27.80;83.00;;;;;;4753740;30;20054;-85
2021/08/30 12:38:14;;;;;;;3.65;2.78;;;28.40;80.60;;;;;;4754169;29;20066;-86
2021/08/30 12:40:45;;;;;;;4.70;2.90;;;29.10;79.50;;;;;;4765100;30;20510;-84
2021/08/30 12:43:12;;;;;;;;;;;29.50;77.70;;;;;;4753875;29;20058;-85
2021/08/30 12:45:38;;;;;;;3.08;2.75;;;29.80;76.00;;;;;;4740432;29;20602;-86
2021/08/30 12:48:06;;;;;;;4.00;2.90;;;30.20;74.70;;;;;;4739900;29;20062;-87
2021/08/30 12:50:34;;;;;;;3.13;2.47;;;30.70;71.90;;;;;;4762446;29;20061;-86
2021/08/30 12:53:01;;;;;;;3.40;3.03;;;31.00;70.40;;;;;;4754043;30;20051;-86
2021/08/30 12:55:27;;;;;;;2.78;2.58;;;31.20;70.70;;;;;;4747759;30;20062;-87
2021/08/30 12:57:54;;;;;;;3.38;3.08;;;31.30;69.70;;;;;;4764928;30;20055;-87
2021/08/30 13:00:21;;;;;;;2.40;2.20;;;31.10;68.00;;;;;;4738530;30;20062;-86
2021/08/30 13:02:53;;;;;;;3.67;2.47;;;30.70;68.10;;;;;;4753365;29;20923;-85
2021/08/30 13:05:23;;;;;;;3.13;2.83;;;30.40;69.00;;;;;;4750586;30;20059;-85